• Join FlightAware (Why Join?)
  • Login
  • US Flag 
07:28AM EDT


 

Airport Tracker/Info


-or-


 

Live Flight TrackerFlight Track Log ✈ N3558D ✈ 29-Aug-2013 ✈ X61 - KOBE

Flight Track Log - Related Links

Times and Time Zones

All times are in EDT time to prevent confusion due to time zone crossing. See the N3558D flight status page for this flight to view local times or setup timezone preferences in your user account.

Time Position Orientation Groundspeed Altitude Reporting Facility
EDT Latitude Longitude Course Direction KTS MPH feet Rate Location/Type
07:00PM 27.9833 -80.7167 190° South 110 127 3,300  Level Orlando TRACON
07:02PM 27.9397 -80.7253 190° South 109 125 3,400  Climbing Miami Center
07:03PM 27.9106 -80.7267 182° South 103 119 3,400  Level Miami Center
07:04PM 27.8789 -80.7328 190° South 103 119 3,500  Climbing Miami Center
07:05PM 27.8497 -80.7342 182° South 103 119 3,500 -60 Level Miami Center
07:06PM 27.8183 -80.7353 182° South 108 124 3,400 -120 Descending Miami Center
07:07PM 27.7892 -80.7392 187° South 108 124 3,300 -60 Descending Miami Center
07:08PM 27.7594 -80.7522 201° Southwest 113 130 3,300  Level Miami Center
07:09PM 27.7281 -80.7606 193° South 113 130 3,400  Climbing Miami Center
07:10PM 27.6986 -80.7689 194° South 108 124 3,400  Level Miami Center
07:11PM 27.6669 -80.7747 189° South 108 124 3,400  Level Miami Center
07:12PM 27.6397 -80.7786 187° South 108 124 3,400  Level Miami Center
07:13PM 27.6083 -80.7844 189° South 108 124 3,400  Level Miami Center
07:14PM 27.5831 -80.7883 188° South 108 124 3,500  Climbing Miami Center
07:15PM 27.5475 -80.7917 185° South 108 124 3,500 -60 Level Miami Center
07:16PM 27.5244 -80.7981 194° South 108 124 3,400 -60 Descending Miami Center
07:17PM 27.4886 -80.8061 191° South 108 124 3,400  Level Miami Center
07:18PM 27.4633 -80.8169 201° Southwest 108 124 3,500 -60 Climbing Miami Center
07:44PM 27.2086 -80.7475 133° Southeast 90 104 2,500 -60 Descending Miami Center
07:45PM 27.1817 -80.7350 158° South 106 122 2,300 -60 Descending Miami Center
07:46PM 27.1572 -80.7178 148° Southeast 112 129 2,400  Climbing Miami Center
07:47PM 27.1306 -80.6958 144° Southeast 112 129 2,400  Level Miami Center
07:48PM 27.1061 -80.6764 145° Southeast 107 123 2,400  Level Miami Center
07:49PM 27.0814 -80.6592 148° Southeast 107 123 2,400  Level Miami Center
07:50PM 27.0589 -80.6444 150° Southeast 101 116 2,400  Level Miami Center
07:51PM 27.0258 -80.6319 161° South 111 128 2,400  Level Miami Center
07:52PM 26.9989 -80.6169 154° Southeast 111 128 2,400  Level Miami Center
07:53PM 26.9722 -80.6044 157° South 111 128 2,400  Level Miami Center
07:54PM 26.9494 -80.5944 159° South 111 128 2,400  Level Miami Center
07:55PM 26.9206 -80.5842 162° South 106 122 2,400  Level Miami Center
08:09PM 26.5722 -80.3989 155° Southeast 97 112 2,500  Climbing Miami Center
08:10PM 26.5475 -80.3867 156° South 99 114 2,500  Level Miami Center
08:11PM 26.5183 -80.3764 162° South 100 115 2,500  Level Miami Center
08:12PM 26.4894 -80.3686 166° South 97 112 2,500  Level Miami Center
08:13PM 26.4603 -80.3631 170° South 101 116 2,500 -120 Level Miami Center
08:15PM 26.4314 -80.3436 149° Southeast 108 124 2,300 -120 Descending Miami Center
08:15PM 26.4089 -80.3267 146° Southeast 102 117 2,300  Level Miami Center
08:16PM 26.3842 -80.3097 148° Southeast 104 120 2,300  Level Miami Center
08:18PM 26.3594 -80.2975 156° South 98 113 2,400 -120 Climbing Miami Center
08:19PM 26.3328 -80.2828 154° Southeast 97 112 2,100 -300 Descending Miami Center
08:20PM 26.3056 -80.2775 170° South 93 107 1,800  Descending Miami Center
08:21PM 26.2864 -80.2978 223° Southwest 101 116 2,100 120 Climbing Miami Center
08:22PM 26.2733 -80.3228 240° Southwest 94 108 2,100  Level Miami Center
08:23PM 26.2581 -80.3525 240° Southwest 92 106 2,100  Level Miami Center
08:24PM 26.2469 -80.3753 241° Southwest 98 113 2,100  Level Miami Center
08:25PM 26.2317 -80.4003 236° Southwest 96 110 2,200  Climbing Miami Center
08:26PM 26.2069 -80.3928 165° South 94 108 2,100 -60 Descending Miami Center
08:27PM 26.1839 -80.3872 168° South 94 108 2,100  Level Miami Center
08:28PM 26.1783 -80.3572 102° East 91 105 2,100 -60 Level Miami Center
08:29PM 26.1811 -80.3294 84° East 93 107 2,000 -60 Descending Miami Center
08:30PM 26.1861 -80.3042 78° East 91 105 2,000 -240 Level Miami Center
08:31PM 26.1867 -80.2764 89° East 85 98 1,600 -480 Descending Miami Center
08:32PM 26.1872 -80.2486 89° East 94 108 1,100 -540 Descending Miami Center
08:33PM 26.1919 -80.2233 78° East 86 99 600 -480 Descending Miami Center
08:34PM 26.1928 -80.1956 88° East 85 98 200 -420 Descending Miami Center